EW2500 Weather Reports


Display with metric or nautical units.
time (UTC)temp
F
wind
direction
speed
MPH
gust
MPH
rain 1hr
in
rain 24hr
in
rain mn
in
humidity
%
barometer
mb
20181017013109 41 228 1.0 3.0 0.00 0.00 0.00 92 1015.4
20181017012615 41 288 0.0 3.0 0.00 0.00 0.00 92 1015.4
20181017012057 41 288 1.0 3.0 0.00 0.00 0.00 92 1015.3
20181017011603 41 227 1.0 2.0 0.00 0.00 0.00 92 1015.3
20181017011106 41 217 0.0 1.0 0.00 0.00 0.00 92 1015.3
20181017010613 41 217 0.0 1.0 0.00 0.00 0.00 92 1015.4
20181017010056 41 217 0.0 1.0 0.00 0.00 0.00 92 1015.3
20181017005604 41 216 0.0 1.0 0.00 0.00 0.00 92 1015.3
20181017005103 41 216 0.0 2.0 0.00 0.00 0.00 91 1015.3
20181017004103 41 216 0.0 1.0 0.00 0.00 0.00 91 1015.4
20181017003611 41 216 0.0 1.0 0.00 0.00 0.00 91 1015.4
20181017003112 41 216 0.0 2.0 0.00 0.00 0.00 91 1015.5
20181017002559 41 216 0.0 2.0 0.00 0.00 0.00 91 1015.6
20181017002104 41 216 0.0 0.0 0.00 0.00 0.00 91 1015.5
20181017001612 41 216 0.0 1.0 0.00 0.00 0.00 91 1015.6
20181017001114 41 216 0.0 1.0 0.00 0.00 0.00 91 1015.5
20181017000602 41 216 0.0 1.0 0.00 0.00 0.00 91 1015.3
20181017000105 41 216 0.0 1.0 0.00 0.00 0.00 91 1015.4
20181016235609 42 216 0.0 0.0 0.00 0.00 0.00 91 1015.3
20181016235111 42 216 0.0 0.0 0.00 0.00 0.00 91 1015.3
20181016234559 42 216 0.0 1.0 0.00 0.00 0.00 91 1015.2
20181016234102 42 216 0.0 1.0 0.00 0.00 0.00 91 1015.1
20181016233610 42 216 0.0 0.0 0.00 0.00 0.00 91 1015.1
20181016233112 42 216 0.0 1.0 0.00 0.00 0.00 90 1015.3
20181016232600 42 216 0.0 1.0 0.00 0.00 0.00 90 1015.3
20181016232104 43 216 0.0 1.0 0.00 0.00 0.00 90 1015.4
20181016231613 43 216 0.0 1.0 0.00 0.00 0.00 90 1015.4
20181016231058 43 216 0.0 1.0 0.00 0.00 0.00 89 1015.2
20181016230606 43 216 0.0 1.0 0.00 0.00 0.00 89 1015.2
20181016230108 43 216 0.0 0.0 0.00 0.00 0.00 88 1015.1
20181016225613 43 216 0.0 0.0 0.00 0.00 0.00 88 1015.2
20181016225058 43 216 0.0 0.0 0.00 0.00 0.00 87 1015.1
20181016224602 44 216 0.0 0.0 0.00 0.00 0.00 87 1015.2
20181016224103 44 216 0.0 0.0 0.00 0.00 0.00 86 1015.4
20181016223611 44 216 0.0 0.0 0.00 0.00 0.00 86 1015.4
20181016223113 45 216 0.0 0.0 0.00 0.00 0.00 85 1015.4
20181016222600 45 216 0.0 0.0 0.00 0.00 0.00 84 1015.3
20181016222103 45 216 0.0 1.0 0.00 0.00 0.00 84 1015.4
20181016221610 46 216 0.0 1.0 0.00 0.00 0.00 84 1015.3
20181016221113 46 216 0.0 1.0 0.00 0.00 0.00 84 1015.4
20181016220600 47 216 0.0 1.0 0.00 0.00 0.00 83 1015.2
20181016220105 47 216 0.0 2.0 0.00 0.00 0.00 82 1015.1
20181016215613 48 216 0.0 2.0 0.00 0.00 0.00 81 1015.1
20181016215058 48 223 1.0 3.0 0.00 0.00 0.00 79 1015.0
20181016214603 48 199 1.0 3.0 0.00 0.00 0.00 77 1015.0
20181016214105 48 241 1.0 3.0 0.00 0.00 0.00 77 1015.1
20181016213554 49 221 1.0 3.0 0.00 0.00 0.00 75 1014.9
20181016213101 49 244 0.0 2.0 0.00 0.00 0.00 77 1014.8
20181016212606 49 244 1.0 6.0 0.00 0.00 0.00 73 1014.9
20181016212105 49 209 2.0 6.0 0.00 0.00 0.00 71 1014.8
20181016211612 50 213 2.0 3.0 0.00 0.00 0.00 71 1014.9
20181016211112 50 196 1.0 5.0 0.00 0.00 0.00 70 1014.9
20181016210557 50 277 2.0 5.0 0.00 0.00 0.00 69 1014.9
20181016210100 50 206 1.0 5.0 0.00 0.00 0.00 68 1014.9
20181016205100 50 153 2.0 6.0 0.00 0.00 0.00 65 1014.8
20181016204606 51 263 2.0 6.0 0.00 0.00 0.00 65 1014.8
20181016204108 51 288 3.0 7.0 0.00 0.00 0.00 65 1014.8
20181016203615 51 211 2.0 6.0 0.00 0.00 0.00 65 1014.9
20181016203055 51 207 2.0 6.0 0.00 0.00 0.00 64 1014.9
20181016202603 52 272 4.0 7.0 0.00 0.00 0.00 62 1014.9
20181016202105 52 258 3.0 8.0 0.00 0.00 0.00 64 1014.9
20181016201611 52 254 3.0 10.0 0.00 0.00 0.00 62 1015.0
20181016201116 52 309 4.0 10.0 0.00 0.00 0.00 61 1015.2
20181016200601 52 280 4.0 9.0 0.00 0.00 0.00 61 1015.3
20181016200103 52 265 4.0 9.0 0.00 0.00 0.00 61 1015.3
20181016195611 52 267 2.0 9.0 0.00 0.00 0.00 62 1015.3
20181016195055 51 246 3.0 11.0 0.00 0.00 0.00 60 1015.3
20181016194602 52 211 4.0 11.0 0.00 0.00 0.00 60 1015.1
20181016194104 52 209 4.0 9.0 0.00 0.00 0.00 61 1015.2
20181016193612 52 261 4.0 8.0 0.00 0.00 0.00 60 1015.3
20181016193054 52 271 2.0 13.0 0.00 0.00 0.00 61 1015.4
20181016192602 51 277 3.0 13.0 0.00 0.00 0.00 62 1015.3
20181016192105 51 299 2.0 10.0 0.00 0.00 0.00 62 1015.4
20181016191611 51 286 3.0 10.0 0.00 0.00 0.00 61 1015.4
20181016191111 51 275 3.0 8.0 0.00 0.00 0.00 62 1015.4
20181016190559 51 180 3.0 9.0 0.00 0.00 0.00 62 1015.5
20181016190103 51 270 3.0 11.0 0.00 0.00 0.00 62 1015.6
20181016185609 51 247 2.0 11.0 0.00 0.00 0.00 63 1015.6
20181016185054 51 253 5.0 9.0 0.00 0.00 0.00 61 1015.5
20181016184603 52 244 6.0 9.0 0.00 0.00 0.00 61 1015.5
20181016184108 52 290 4.0 8.0 0.00 0.00 0.00 62 1015.6
20181016183554 51 249 1.0 7.0 0.00 0.00 0.00 62 1015.7
20181016183100 51 5 1.0 7.0 0.00 0.00 0.00 64 1015.7
20181016182608 51 236 2.0 9.0 0.00 0.00 0.00 64 1015.7
20181016182106 51 232 3.0 9.0 0.00 0.00 0.00 62 1015.8
20181016181554 51 275 4.0 9.0 0.00 0.00 0.00 62 1015.9
20181016181100 52 233 2.0 3.0 0.00 0.00 0.00 65 1015.9
20181016180607 51 62 2.0 7.0 0.00 0.00 0.00 65 1015.8
20181016180113 51 327 2.0 7.0 0.00 0.00 0.00 65 1016.0
20181016175600 51 269 2.0 5.0 0.00 0.00 0.00 65 1016.2
20181016175106 51 62 1.0 4.0 0.00 0.00 0.00 65 1016.1
20181016174613 51 242 2.0 4.0 0.00 0.00 0.00 64 1016.0
20181016174058 50 218 1.0 3.0 0.00 0.00 0.00 69 1016.3
20181016173605 50 81 1.0 5.0 0.00 0.00 0.00 67 1016.2
20181016173109 50 184 1.0 5.0 0.00 0.00 0.00 68 1016.4
20181016172559 49 267 2.0 12.0 0.00 0.00 0.00 66 1016.4
20181016172103 49 196 4.0 12.0 0.00 0.00 0.00 64 1016.4
20181016171606 50 279 2.0 9.0 0.00 0.00 0.00 65 1016.5
20181016171109 50 342 3.0 9.0 0.00 0.00 0.00 66 1016.5
20181016170612 50 255 4.0 10.0 0.00 0.00 0.00 66 1016.6
20181016170116 50 277 2.0 10.0 0.00 0.00 0.00 67 1016.7
20181016165559 49 115 2.0 9.0 0.00 0.00 0.00 69 1016.7
20181016165101 49 204 3.0 10.0 0.00 0.00 0.00 70 1016.7
20181016164609 49 286 4.0 12.0 0.00 0.00 0.00 70 1016.8
20181016164110 49 300 4.0 12.0 0.00 0.00 0.00 68 1017.0
20181016163558 48 336 4.0 11.0 0.00 0.00 0.00 69 1017.1
20181016163101 48 267 4.0 12.0 0.00 0.00 0.00 68 1017.2
20181016162609 48 304 8.0 12.0 0.00 0.00 0.00 66 1017.3
20181016162110 48 81 2.0 10.0 0.00 0.00 0.00 70 1017.3
20181016161557 48 262 3.0 16.0 0.00 0.00 0.00 68 1017.4
20181016161102 48 203 6.0 16.0 0.00 0.00 0.00 68 1017.2
20181016160605 48 243 5.0 9.0 0.00 0.00 0.00 68 1017.3
20181016160107 48 307 2.0 6.0 0.00 0.00 0.00 70 1017.6
20181016155553 48 302 3.0 10.0 0.00 0.00 0.00 70 1017.6
20181016155057 48 280 6.0 10.0 0.00 0.00 0.00 69 1017.8
20181016154605 48 242 3.0 12.0 0.00 0.00 0.00 68 1017.8
20181016154108 48 212 3.0 12.0 0.00 0.00 0.00 68 1017.8
20181016153553 48 294 4.0 12.0 0.00 0.00 0.00 72 1017.8
20181016153059 47 267 7.0 12.0 0.00 0.00 0.00 69 1017.9
20181016152605 47 217 5.0 11.0 0.00 0.00 0.00 70 1017.9
20181016152107 47 275 5.0 10.0 0.00 0.00 0.00 69 1017.8
20181016151554 47 110 2.0 13.0 0.00 0.00 0.00 70 1017.7
20181016151100 47 277 4.0 13.0 0.00 0.00 0.00 69 1017.8
20181016150607 47 292 3.0 11.0 0.00 0.00 0.00 70 1017.7
20181016150109 47 290 6.0 13.0 0.00 0.00 0.00 68 1017.8
20181016145557 47 289 4.0 13.0 0.00 0.00 0.00 70 1017.8
20181016145101 47 299 5.0 16.0 0.00 0.00 0.00 70 1017.8
20181016144606 47 269 6.0 16.0 0.00 0.00 0.00 71 1017.8
20181016144110 47 287 2.0 11.0 0.00 0.00 0.00 72 1017.8
20181016143556 46 264 4.0 10.0 0.00 0.00 0.00 71 1017.9
20181016143101 46 346 4.0 20.0 0.00 0.00 0.00 71 1017.9
20181016142608 46 264 3.0 20.0 0.00 0.00 0.00 72 1017.8
20181016142112 46 341 5.0 12.0 0.00 0.00 0.00 71 1017.8
20181016141559 46 269 3.0 12.0 0.00 0.00 0.00 71 1017.9
20181016141102 46 272 4.0 12.0 0.00 0.00 0.00 72 1018.0
20181016140608 45 303 4.0 10.0 0.00 0.00 0.00 72 1018.0
20181016140111 45 284 5.0 16.0 0.00 0.00 0.00 72 1017.9
20181016135600 45 294 6.0 16.0 0.00 0.00 0.00 72 1017.7
20181016135104 45 132 4.0 14.0 0.00 0.00 0.00 74 1017.9
20181016134611 45 233 6.0 14.0 0.00 0.00 0.00 74 1017.8
20181016134055 44 288 4.0 9.0 0.00 0.00 0.00 74 1017.9
20181016133601 44 326 4.0 16.0 0.00 0.00 0.00 75 1018.0
20181016133105 44 309 5.0 16.0 0.00 0.00 0.00 75 1018.1
20181016132612 44 297 4.0 13.0 0.00 0.00 0.00 77 1018.0
20181016132057 44 244 6.0 13.0 0.00 0.00 0.00 75 1018.1
20181016131605 44 240 5.0 11.0 0.00 0.00 0.00 75 1018.0
20181016131054 43 238 3.0 17.0 0.00 0.00 0.00 76 1018.0
20181016130602 43 302 5.0 17.0 0.00 0.00 0.00 75 1018.0
20181016130103 43 28 3.0 14.0 0.00 0.00 0.00 75 1018.0
20181016125609 43 144 3.0 7.0 0.00 0.00 0.00 76 1018.0
20181016125111 43 279 4.0 11.0 0.00 0.00 0.00 76 1017.9
20181016124557 43 177 3.0 11.0 0.00 0.00 0.00 77 1018.0
20181016124058 43 269 5.0 11.0 0.00 0.00 0.00 76 1017.9
20181016123604 43 245 5.0 11.0 0.00 0.00 0.00 76 1018.0
20181016123108 43 238 2.0 9.0 0.00 0.00 0.00 77 1017.9
20181016122554 42 249 3.0 11.0 0.00 0.00 0.00 78 1017.8
20181016122058 42 262 2.0 13.0 0.00 0.00 0.00 78 1017.6
20181016121606 42 307 5.0 13.0 0.00 0.00 0.00 79 1017.4
20181016121106 42 319 3.0 8.0 0.00 0.00 0.00 79 1017.4
20181016120612 42 282 3.0 10.0 0.00 0.00 0.00 80 1017.3
20181016120114 42 271 3.0 10.0 0.00 0.00 0.00 81 1017.4
20181016115559 41 355 2.0 7.0 0.00 0.00 0.00 82 1017.4
20181016115101 41 263 2.0 3.0 0.00 0.00 0.00 81 1017.4
20181016114608 42 294 1.0 3.0 0.00 0.00 0.00 80 1017.4
20181016114108 42 281 1.0 3.0 0.00 0.00 0.00 80 1017.3
20181016113554 41 311 1.0 6.0 0.00 0.00 0.00 79 1017.3
20181016113055 41 360 3.0 6.0 0.00 0.00 0.00 79 1017.0
20181016112613 41 244 2.0 4.0 0.00 0.00 0.00 80 1017.0
20181016112112 42 169 2.0 4.0 0.00 0.00 0.00 80 1016.9
20181016111558 42 266 1.0 9.0 0.00 0.00 0.00 80 1016.9
20181016111101 42 292 2.0 9.0 0.00 0.00 0.00 79 1016.8
20181016110609 42 242 2.0 6.0 0.00 0.00 0.00 79 1016.7
20181016110111 42 269 1.0 6.0 0.00 0.00 0.00 80 1016.7
20181016105556 42 308 2.0 6.0 0.00 0.00 0.00 79 1016.7
20181016105100 42 275 2.0 4.0 0.00 0.00 0.00 78 1016.7
20181016104606 43 275 2.0 4.0 0.00 0.00 0.00 76 1016.7
20181016104107 43 266 3.0 4.0 0.00 0.00 0.00 75 1016.6
20181016103554 43 243 1.0 8.0 0.00 0.00 0.00 76 1016.6
20181016103059 43 273 1.0 8.0 0.00 0.00 0.00 76 1016.5
20181016102605 43 255 2.0 10.0 0.00 0.00 0.00 75 1016.4
20181016102109 43 301 3.0 10.0 0.00 0.00 0.00 76 1016.4
20181016101616 43 231 3.0 7.0 0.00 0.00 0.00 77 1016.3
20181016101057 43 283 2.0 8.0 0.00 0.00 0.00 76 1016.4
20181016100605 44 262 4.0 8.0 0.00 0.00 0.00 73 1016.3
20181016100106 44 280 2.0 7.0 0.00 0.00 0.00 74 1016.3
20181016095555 44 246 2.0 4.0 0.00 0.00 0.00 73 1016.2
20181016095059 44 275 2.0 11.0 0.00 0.00 0.00 74 1016.1
20181016094606 45 272 3.0 11.0 0.00 0.00 0.00 73 1015.8
20181016094107 45 292 2.0 11.0 0.00 0.00 0.00 72 1015.9
20181016093616 45 228 5.0 11.0 0.00 0.00 0.00 72 1015.9
20181016093056 45 226 2.0 8.0 0.00 0.00 0.00 73 1015.8
20181016092602 46 277 2.0 13.0 0.00 0.00 0.00 75 1015.5
20181016092103 46 263 5.0 13.0 0.00 0.00 0.00 71 1015.5
20181016091611 46 267 6.0 11.0 0.00 0.00 0.00 72 1015.4
20181016091113 46 296 4.0 9.0 0.00 0.00 0.00 72 1015.2
20181016090600 46 287 3.0 6.0 0.00 0.00 0.00 75 1015.0
20181016090104 47 283 2.0 11.0 0.00 0.00 0.00 74 1014.9
20181016085612 47 298 4.0 12.0 0.00 0.00 0.00 72 1014.7
20181016085056 47 283 4.0 12.0 0.00 0.00 0.00 71 1014.6
20181016084602 47 294 3.0 12.0 0.00 0.00 0.00 71 1014.5
20181016084107 48 253 4.0 12.0 0.00 0.00 0.00 68 1014.5
20181016083612 48 302 5.0 11.0 0.00 0.00 0.00 68 1014.5
20181016083055 48 262 3.0 10.0 0.00 0.00 0.00 67 1014.4
20181016082602 49 311 3.0 10.0 0.00 0.00 0.00 70 1014.2
20181016082107 49 248 3.0 14.0 0.00 0.00 0.00 71 1014.1
20181016081555 49 319 5.0 14.0 0.00 0.00 0.00 78 1013.8
20181016081059 49 355 4.0 8.0 0.00 0.00 0.00 81 1013.7
20181016080604 50 298 2.0 9.0 0.00 0.00 0.00 81 1013.6
20181016080104 50 313 2.0 9.0 0.00 0.00 0.00 80 1013.5
20181016075607 50 275 2.0 9.0 0.00 0.00 0.00 80 1013.4
20181016075108 50 269 4.0 12.0 0.00 0.00 0.00 79 1013.2
20181016074614 50 250 5.0 13.0 0.00 0.00 0.00 79 1013.2
20181016074055 51 307 5.0 13.0 0.00 0.00 0.00 81 1013.1
20181016073603 51 285 2.0 12.0 0.00 0.00 0.00 81 1013.0
20181016073107 51 224 3.0 12.0 0.00 0.00 0.00 79 1012.9
20181016072611 51 331 4.0 12.0 0.00 0.00 0.00 81 1012.8
20181016072111 52 82 2.0 12.0 0.00 0.00 0.00 80 1012.9
20181016071559 52 290 2.0 12.0 0.00 0.00 0.00 82 1012.9
20181016071102 52 277 5.0 14.0 0.00 0.00 0.00 81 1012.8
20181016070609 52 208 4.0 15.0 0.00 0.00 0.00 82 1012.8
20181016070110 52 52 6.0 15.0 0.00 0.00 0.00 84 1012.7
20181016065614 53 28 3.0 12.0 0.00 0.00 0.00 85 1012.6
20181016065054 53 298 3.0 13.0 0.00 0.00 0.00 86 1012.4
20181016064602 53 219 3.0 13.0 0.00 0.00 0.00 86 1012.3
20181016063602 53 297 2.0 10.0 0.00 0.00 0.00 87 1012.3
20181016063104 53 302 3.0 13.0 0.00 0.00 0.00 87 1012.3
20181016062610 53 305 4.0 13.0 0.00 0.00 0.00 88 1012.2
20181016062109 53 232 5.0 24.0 0.00 0.00 0.00 88 1012.1
20181016061616 53 321 3.0 16.0 0.00 0.00 0.00 89 1011.8
20181016061058 53 282 6.0 16.0 0.00 0.00 0.00 90 1011.6
20181016060603 53 253 4.0 16.0 0.00 0.00 0.00 90 1011.5
20181016060106 53 288 7.0 16.0 0.00 0.00 0.00 91 1011.4
20181016055611 53 297 6.0 14.0 0.00 0.00 0.00 91 1011.4
20181016055055 53 261 5.0 14.0 0.00 0.00 0.00 91 1011.4
20181016054603 53 262 6.0 15.0 0.00 0.00 0.00 92 1011.5
20181016054105 53 290 8.0 15.0 0.00 0.00 0.00 92 1011.1
20181016053608 53 5 5.0 15.0 0.00 0.00 0.00 92 1011.0
20181016053112 53 248 2.0 15.0 0.00 0.00 0.00 93 1011.1
20181016052559 53 252 4.0 15.0 0.00 0.00 0.00 93 1011.1
20181016052105 54 298 5.0 15.0 0.00 0.00 0.00 93 1011.0
20181016051614 54 257 4.0 18.0 0.00 0.00 0.00 93 1010.9
20181016051057 55 257 5.0 18.0 0.00 0.00 0.00 93 1011.0
20181016050605 55 302 5.0 13.0 0.00 0.00 0.00 93 1010.9
20181016050107 56 317 4.0 11.0 0.00 0.00 0.00 93 1011.0
20181016045613 56 300 3.0 13.0 0.00 0.00 0.00 93 1010.7
20181016045055 56 252 7.0 14.0 0.00 0.00 0.00 93 1010.5
20181016044602 57 218 5.0 14.0 0.00 0.00 0.00 93 1010.4
20181016044107 57 322 4.0 17.0 0.00 0.00 0.00 93 1010.2
20181016043612 57 297 6.0 17.0 0.00 0.00 0.00 93 1010.3
20181016043112 58 296 2.0 8.0 0.00 0.00 0.00 93 1010.2
20181016042557 58 281 4.0 8.0 0.00 0.00 0.00 93 1009.9
20181016042058 58 302 2.0 7.0 0.00 0.00 0.00 93 1010.0
20181016041605 58 274 1.0 15.0 0.00 0.00 0.00 93 1010.0
20181016041108 59 332 4.0 15.0 0.00 0.00 0.00 93 1010.0
20181016040557 59 281 4.0 11.0 0.00 0.00 0.00 93 1009.9
20181016040103 59 261 4.0 23.0 0.00 0.00 0.00 93 1009.7
20181016035609 60 252 6.0 23.0 0.00 0.00 0.00 93 1009.5
20181016035113 61 46 4.0 11.0 0.00 0.00 0.00 93 1009.4
20181016034559 62 84 1.0 11.0 0.00 0.00 0.00 93 1008.9
20181016034102 62 254 3.0 14.0 0.00 0.00 0.00 93 1008.8
20181016033554 62 293 4.0 14.0 0.00 0.00 0.00 93 1008.8
20181016033057 63 225 5.0 14.0 0.00 0.00 0.00 93 1008.9
20181016032604 63 281 4.0 16.0 0.00 0.00 0.00 93 1008.6
20181016032104 64 296 6.0 15.0 0.00 0.00 0.00 93 1008.5
20181016031609 64 310 6.0 18.0 0.00 0.00 0.00 93 1008.3
20181016031111 64 288 3.0 18.0 0.00 0.00 0.00 93 1008.4
20181016030556 64 223 3.0 14.0 0.00 0.00 0.00 93 1008.4
20181016030059 64 307 3.0 14.0 0.00 0.00 0.00 93 1008.4
20181016025607 64 190 5.0 11.0 0.00 0.00 0.00 93 1008.5
20181016025110 65 240 5.0 15.0 0.00 0.00 0.00 93 1008.5
20181016024556 65 269 4.0 15.0 0.00 0.00 0.00 93 1008.1
20181016024059 65 292 5.0 20.0 0.00 0.00 0.00 93 1008.3
20181016023609 64 113 7.0 20.0 0.00 0.00 0.00 93 1008.3
20181016023108 64 273 6.0 12.0 0.00 0.00 0.00 93 1008.4
20181016022611 64 156 4.0 15.0 0.00 0.00 0.00 93 1008.4
20181016022111 64 96 5.0 12.0 0.00 0.00 0.00 93 1008.4
20181016021557 64 290 3.0 10.0 0.00 0.00 0.00 93 1008.4
20181016021059 64 177 3.0 11.0 0.00 0.00 0.00 94 1008.5
20181016020604 64 219 3.0 11.0 0.00 0.00 0.00 94 1008.3
20181016020106 64 204 4.0 12.0 0.00 0.00 0.00 94 1008.4
20181016015552 64 246 5.0 12.0 0.00 0.00 0.00 94 1008.4
20181016015058 64 77 3.0 10.0 0.00 0.00 0.00 94 1008.5
20181016014603 64 179 4.0 10.0 0.00 0.00 0.00 94 1008.5
20181016014107 63 286 4.0 12.0 0.00 0.00 0.00 94 1008.3
20181016013553 63 165 4.0 16.0 0.00 0.00 0.00 95 1008.4